createdAt,value
2017-06-14T00:01:04.367Z,0
2017-06-14T00:02:13.253Z,0
2017-06-14T00:03:22.137Z,0
2017-06-14T00:04:31.350Z,0
2017-06-14T00:05:40.560Z,0
2017-06-14T00:06:49.918Z,0
2017-06-14T00:07:59.127Z,0
2017-06-14T00:09:08.011Z,0
2017-06-14T00:10:17.226Z,0
2017-06-14T00:11:26.115Z,0
2017-06-14T00:12:35.326Z,0
2017-06-14T00:13:44.534Z,0
2017-06-14T00:14:53.424Z,0
2017-06-14T00:16:02.636Z,0
2017-06-14T00:17:11.531Z,0
2017-06-14T00:18:20.571Z,0
2017-06-14T00:19:29.460Z,0
2017-06-14T00:20:38.670Z,0
2017-06-14T00:21:47.877Z,0
2017-06-14T00:22:57.087Z,0
2017-06-14T00:24:06.275Z,0
2017-06-14T00:25:15.159Z,0
2017-06-14T00:26:24.368Z,0
2017-06-14T00:27:33.578Z,0
2017-06-14T00:28:42.465Z,0
2017-06-14T00:29:51.729Z,0
2017-06-14T00:31:00.631Z,0
2017-06-14T00:32:09.516Z,0
2017-06-14T00:33:18.750Z,0
2017-06-14T00:34:27.966Z,0
2017-06-14T00:35:37.549Z,0
2017-06-14T00:36:46.435Z,0
2017-06-14T00:37:55.967Z,0
2017-06-14T00:39:04.851Z,0
2017-06-14T00:40:13.737Z,0
2017-06-14T00:41:22.774Z,0
2017-06-14T00:42:31.993Z,0
2017-06-14T00:43:41.205Z,0
2017-06-14T00:44:50.415Z,0
2017-06-14T00:45:59.298Z,0
2017-06-14T00:47:09.015Z,0
2017-06-14T00:48:18.241Z,0
2017-06-14T00:49:27.126Z,0
2017-06-14T00:50:36.343Z,0
2017-06-14T00:51:45.229Z,0
2017-06-14T00:52:54.534Z,0
2017-06-14T00:54:04.069Z,0
2017-06-14T00:55:12.955Z,0
2017-06-14T00:56:22.163Z,0
2017-06-14T00:57:31.622Z,0
2017-06-14T00:58:41.252Z,0
2017-06-14T00:59:50.145Z,0
2017-06-14T01:00:59.036Z,0
2017-06-14T01:02:08.246Z,0
2017-06-14T01:03:17.461Z,0
2017-06-14T01:04:26.346Z,0
2017-06-14T01:05:35.563Z,0
2017-06-14T01:06:44.772Z,0
2017-06-14T01:07:53.665Z,0
2017-06-14T01:09:02.551Z,0
2017-06-14T01:10:11.772Z,0
2017-06-14T01:11:20.665Z,0
2017-06-14T01:12:29.555Z,0
2017-06-14T01:13:38.766Z,0
2017-06-14T01:14:47.647Z,0
2017-06-14T01:15:56.686Z,0
2017-06-14T01:17:05.894Z,0
2017-06-14T01:18:14.783Z,0
2017-06-14T01:19:24.001Z,0
2017-06-14T01:20:32.883Z,0
2017-06-14T01:21:41.918Z,0
2017-06-14T01:22:50.811Z,0
2017-06-14T01:24:00.349Z,0
2017-06-14T01:25:09.240Z,0
2017-06-14T01:26:18.448Z,0
2017-06-14T01:27:27.760Z,0
2017-06-14T01:28:36.970Z,0
2017-06-14T01:29:46.505Z,0
2017-06-14T01:30:55.395Z,0
2017-06-14T01:32:04.936Z,0
2017-06-14T01:33:13.969Z,0
2017-06-14T01:34:22.855Z,0
2017-06-14T01:35:31.746Z,0
2017-06-14T01:36:40.628Z,0
2017-06-14T01:37:49.839Z,0
2017-06-14T01:38:59.526Z,0
2017-06-14T01:40:08.746Z,0
2017-06-14T01:41:17.629Z,0
2017-06-14T01:42:26.520Z,0
2017-06-14T01:43:36.053Z,0
2017-06-14T01:44:45.265Z,0
2017-06-14T01:45:54.478Z,0
2017-06-14T01:47:03.364Z,0
2017-06-14T01:48:12.577Z,0
2017-06-14T01:49:21.467Z,0
2017-06-14T01:50:30.404Z,0
2017-06-14T01:51:39.617Z,0
2017-06-14T01:52:48.827Z,0
2017-06-14T01:53:57.716Z,0
2017-06-14T01:55:06.641Z,0
2017-06-14T01:56:15.904Z,0
2017-06-14T01:57:24.792Z,0
2017-06-14T01:58:33.680Z,0
2017-06-14T01:59:43.215Z,0
2017-06-14T02:00:52.097Z,0
2017-06-14T02:02:00.983Z,0
2017-06-14T02:03:09.867Z,0
2017-06-14T02:04:18.752Z,0
2017-06-14T02:05:27.637Z,0
2017-06-14T02:06:36.521Z,0
2017-06-14T02:07:45.705Z,0
2017-06-14T02:08:54.588Z,0
2017-06-14T02:10:03.803Z,0
2017-06-14T02:11:13.021Z,0
2017-06-14T02:12:21.906Z,0
2017-06-14T02:13:30.993Z,0
2017-06-14T02:14:39.876Z,0
2017-06-14T02:15:49.417Z,0
2017-06-14T02:16:58.299Z,4
2017-06-14T02:18:07.837Z,4
2017-06-14T02:19:17.201Z,0
2017-06-14T02:20:26.087Z,0
2017-06-14T02:21:34.972Z,4
2017-06-14T02:22:43.861Z,4
2017-06-14T02:23:52.747Z,4
2017-06-14T02:25:01.691Z,4
2017-06-14T02:26:10.903Z,4
2017-06-14T02:27:19.788Z,8
2017-06-14T02:28:28.676Z,4
2017-06-14T02:29:37.890Z,4
2017-06-14T02:30:47.723Z,4
2017-06-14T02:31:57.257Z,8
2017-06-14T02:33:06.145Z,12
2017-06-14T02:34:15.684Z,8
2017-06-14T02:35:24.571Z,12
2017-06-14T02:36:33.554Z,12
2017-06-14T02:37:43.084Z,12
2017-06-14T02:38:52.298Z,16
2017-06-14T02:40:01.507Z,16
2017-06-14T02:41:10.391Z,20
2017-06-14T02:42:19.380Z,20
2017-06-14T02:43:28.265Z,24
2017-06-14T02:44:37.797Z,28
2017-06-14T02:45:47.006Z,28
2017-06-14T02:46:56.212Z,36
2017-06-14T02:48:05.252Z,36
2017-06-14T02:49:14.153Z,40
2017-06-14T02:50:23.689Z,44
2017-06-14T02:51:32.897Z,48
2017-06-14T02:52:41.781Z,52
2017-06-14T02:53:51.315Z,60
2017-06-14T02:55:00.580Z,64
2017-06-14T02:56:09.467Z,72
2017-06-14T02:57:18.699Z,76
2017-06-14T02:58:28.234Z,84
2017-06-14T02:59:37.921Z,92
2017-06-14T03:00:47.453Z,96
2017-06-14T03:01:56.341Z,104
2017-06-14T03:03:05.873Z,112
2017-06-14T03:04:15.405Z,120
2017-06-14T03:05:24.393Z,132
2017-06-14T03:06:33.278Z,136
2017-06-14T03:07:42.161Z,152
2017-06-14T03:08:51.373Z,160
2017-06-14T03:10:00.263Z,172
2017-06-14T03:11:09.523Z,184
2017-06-14T03:12:18.759Z,196
2017-06-14T03:13:27.644Z,212
2017-06-14T03:14:36.857Z,220
2017-06-14T03:15:45.741Z,232
2017-06-14T03:16:54.626Z,240
2017-06-14T03:18:03.833Z,256
2017-06-14T03:19:12.719Z,264
2017-06-14T03:20:21.603Z,276
2017-06-14T03:21:30.489Z,288
2017-06-14T03:22:39.798Z,296
2017-06-14T03:23:48.684Z,308
2017-06-14T03:24:58.221Z,320
2017-06-14T03:26:07.436Z,332
2017-06-14T03:27:16.321Z,344
2017-06-14T03:28:25.303Z,360
2017-06-14T03:29:34.189Z,372
2017-06-14T03:30:43.395Z,380
2017-06-14T03:31:52.277Z,388
2017-06-14T03:33:01.490Z,396
2017-06-14T03:34:10.524Z,416
2017-06-14T03:35:19.426Z,424
2017-06-14T03:36:28.312Z,440
2017-06-14T03:37:37.241Z,448
2017-06-14T03:38:46.143Z,460
2017-06-14T03:39:55.505Z,472
2017-06-14T03:41:04.717Z,484
2017-06-14T03:42:13.927Z,488
2017-06-14T03:43:22.813Z,504
2017-06-14T03:44:31.695Z,516
2017-06-14T03:45:41.382Z,528
2017-06-14T03:46:50.269Z,532
2017-06-14T03:47:59.154Z,548
2017-06-14T03:49:08.042Z,560
2017-06-14T03:50:16.927Z,584
2017-06-14T03:51:25.864Z,592
2017-06-14T03:52:34.754Z,608
2017-06-14T03:53:43.638Z,624
2017-06-14T03:54:52.521Z,632
2017-06-14T03:56:01.406Z,624
2017-06-14T03:57:10.813Z,620
2017-06-14T03:58:20.022Z,632
2017-06-14T03:59:29.233Z,660
2017-06-14T04:00:38.115Z,676
2017-06-14T04:01:47.326Z,696
2017-06-14T04:02:56.462Z,708
2017-06-14T04:04:05.381Z,728
2017-06-14T04:05:14.268Z,744
2017-06-14T04:06:23.481Z,756
2017-06-14T04:07:32.695Z,768
2017-06-14T04:08:41.681Z,768
2017-06-14T04:09:50.569Z,772
2017-06-14T04:10:59.783Z,776
2017-06-14T04:12:08.997Z,780
2017-06-14T04:13:17.886Z,788
2017-06-14T04:14:27.142Z,872
2017-06-14T04:15:36.676Z,1148
2017-06-14T04:16:45.562Z,1308
2017-06-14T04:17:54.769Z,1232
2017-06-14T04:19:03.651Z,1164
2017-06-14T04:20:12.556Z,1052
2017-06-14T04:21:21.769Z,936
2017-06-14T04:22:30.655Z,888
2017-06-14T04:23:39.576Z,880
2017-06-14T04:24:49.110Z,884
2017-06-14T04:25:57.991Z,864
2017-06-14T04:27:06.878Z,1060
2017-06-14T04:28:16.084Z,1328
2017-06-14T04:29:24.968Z,1352
2017-06-14T04:30:33.852Z,1316
2017-06-14T04:31:42.887Z,1172
2017-06-14T04:32:52.094Z,1120
2017-06-14T04:34:01.305Z,1052
2017-06-14T04:35:10.518Z,984
2017-06-14T04:36:19.732Z,980
2017-06-14T04:37:28.995Z,980
2017-06-14T04:38:37.881Z,1052
2017-06-14T04:39:47.092Z,1116
2017-06-14T04:40:55.984Z,1128
2017-06-14T04:42:05.193Z,1172
2017-06-14T04:43:14.091Z,1160
2017-06-14T04:44:23.301Z,1112
2017-06-14T04:45:32.187Z,1060
2017-06-14T04:46:41.720Z,952
2017-06-14T04:47:50.607Z,924
2017-06-14T04:48:59.865Z,936
2017-06-14T04:50:08.756Z,976
2017-06-14T04:51:17.642Z,936
2017-06-14T04:52:26.527Z,924
2017-06-14T04:53:35.425Z,928
2017-06-14T04:54:44.936Z,960
2017-06-14T04:55:53.824Z,988
2017-06-14T04:57:02.707Z,988
2017-06-14T04:58:11.922Z,992
2017-06-14T04:59:21.469Z,996
2017-06-14T05:00:30.718Z,1008
2017-06-14T05:01:39.612Z,1028
2017-06-14T05:02:48.502Z,1028
2017-06-14T05:03:57.392Z,1048
2017-06-14T05:05:06.604Z,1076
2017-06-14T05:06:16.442Z,1092
2017-06-14T05:07:25.340Z,1104
2017-06-14T05:08:34.231Z,1164
2017-06-14T05:09:43.441Z,1216
2017-06-14T05:10:52.328Z,1128
2017-06-14T05:12:01.466Z,1084
2017-06-14T05:13:10.362Z,1076
2017-06-14T05:14:19.250Z,1076
2017-06-14T05:15:28.136Z,1064
2017-06-14T05:16:37.029Z,1076
2017-06-14T05:17:46.565Z,1064
2017-06-14T05:18:55.774Z,1068
2017-06-14T05:20:04.657Z,1064
2017-06-14T05:21:13.570Z,1064
2017-06-14T05:22:22.783Z,1060
2017-06-14T05:23:31.950Z,1060
2017-06-14T05:24:41.255Z,1060
2017-06-14T05:25:50.710Z,1060
2017-06-14T05:26:59.678Z,1064
2017-06-14T05:28:08.956Z,1056
2017-06-14T05:29:17.923Z,1052
2017-06-14T05:30:26.884Z,1048
2017-06-14T05:31:36.106Z,1044
2017-06-14T05:32:45.320Z,1044
2017-06-14T05:33:54.207Z,1044
2017-06-14T05:35:03.415Z,1044
2017-06-14T05:36:12.308Z,1048
2017-06-14T05:37:21.844Z,1048
2017-06-14T05:38:30.800Z,1044
2017-06-14T05:39:40.078Z,1048
2017-06-14T05:40:48.963Z,1056
2017-06-14T05:41:58.173Z,1060
2017-06-14T05:43:07.066Z,1060
2017-06-14T05:44:16.507Z,1060
2017-06-14T05:45:25.415Z,1068
2017-06-14T05:46:34.302Z,1080
2017-06-14T05:47:43.519Z,1088
2017-06-14T05:48:52.558Z,1100
2017-06-14T05:50:01.776Z,1068
2017-06-14T05:51:10.678Z,1072
2017-06-14T05:52:19.579Z,1084
2017-06-14T05:53:28.471Z,1096
2017-06-14T05:54:37.389Z,1096
2017-06-14T05:55:46.334Z,1096
2017-06-14T05:56:55.267Z,1084
2017-06-14T05:58:04.154Z,1080
2017-06-14T05:59:13.043Z,1088
2017-06-14T06:00:21.933Z,1080
2017-06-14T06:01:30.828Z,1068
2017-06-14T06:02:40.039Z,1164
2017-06-14T06:03:48.926Z,1212
2017-06-14T06:04:58.145Z,1112
2017-06-14T06:06:07.035Z,1172
2017-06-14T06:07:16.248Z,1344
2017-06-14T06:08:25.132Z,1332
2017-06-14T06:09:34.696Z,1288
2017-06-14T06:10:43.915Z,1252
2017-06-14T06:11:53.453Z,1296
2017-06-14T06:13:02.372Z,1296
2017-06-14T06:14:11.266Z,1368
2017-06-14T06:15:20.480Z,1244
2017-06-14T06:16:29.371Z,1176
2017-06-14T06:17:38.264Z,1124
2017-06-14T06:18:47.480Z,1100
2017-06-14T06:19:56.843Z,1220
2017-06-14T06:21:05.733Z,1240
2017-06-14T06:22:14.949Z,1228
2017-06-14T06:23:24.162Z,1192
2017-06-14T06:24:33.375Z,1188
2017-06-14T06:25:42.529Z,1108
2017-06-14T06:26:51.423Z,1056
2017-06-14T06:28:00.334Z,1028
2017-06-14T06:29:09.242Z,1124
2017-06-14T06:30:18.470Z,1064
2017-06-14T06:31:27.998Z,1136
2017-06-14T06:32:36.891Z,1164
2017-06-14T06:33:46.108Z,1164
2017-06-14T06:34:55.323Z,1112
2017-06-14T06:36:04.547Z,1188
2017-06-14T06:37:13.597Z,1096
2017-06-14T06:38:22.827Z,1216
2017-06-14T06:39:31.747Z,1208
2017-06-14T06:40:40.641Z,1260
2017-06-14T06:41:49.559Z,1220
2017-06-14T06:42:58.780Z,1188
2017-06-14T06:44:07.698Z,1184
2017-06-14T06:45:16.622Z,1196
2017-06-14T06:46:25.550Z,1156
2017-06-14T06:47:34.444Z,1140
2017-06-14T06:48:43.721Z,1176
2017-06-14T06:49:52.614Z,1212
2017-06-14T06:51:01.824Z,1268
2017-06-14T06:52:10.715Z,1304
2017-06-14T06:53:19.974Z,1276
2017-06-14T06:54:29.064Z,1256
2017-06-14T06:55:37.953Z,1228
2017-06-14T06:56:46.840Z,1216
2017-06-14T06:57:56.062Z,1224
2017-06-14T06:59:04.957Z,1272
2017-06-14T07:00:14.114Z,1288
2017-06-14T07:01:23.674Z,1260
2017-06-14T07:02:32.586Z,1236
2017-06-14T07:03:41.884Z,1348
2017-06-14T07:04:51.112Z,1268
2017-06-14T07:06:00.454Z,1364
2017-06-14T07:07:09.391Z,1492
2017-06-14T07:08:18.295Z,1672
2017-06-14T07:09:27.196Z,1264
2017-06-14T07:10:36.095Z,1180
2017-06-14T07:11:45.236Z,1184
2017-06-14T07:12:54.162Z,1116
2017-06-14T07:14:03.068Z,1124
2017-06-14T07:15:12.055Z,1208
2017-06-14T07:16:21.276Z,1236
2017-06-14T07:17:30.319Z,1264
2017-06-14T07:18:39.212Z,1268
2017-06-14T07:19:48.162Z,1244
2017-06-14T07:20:57.068Z,1364
2017-06-14T07:22:06.016Z,1256
2017-06-14T07:23:15.766Z,1252
2017-06-14T07:24:24.677Z,1248
2017-06-14T07:25:33.920Z,1248
2017-06-14T07:26:42.948Z,1228
2017-06-14T07:27:52.205Z,1236
2017-06-14T07:29:01.874Z,1240
2017-06-14T07:30:10.777Z,1268
2017-06-14T07:31:19.708Z,1308
2017-06-14T07:32:28.645Z,1356
2017-06-14T07:33:37.560Z,1252
2017-06-14T07:34:46.806Z,1344
2017-06-14T07:35:55.751Z,1404
2017-06-14T07:37:04.695Z,1296
2017-06-14T07:38:13.671Z,1204
2017-06-14T07:39:22.980Z,1204
2017-06-14T07:40:32.268Z,1212
2017-06-14T07:41:41.512Z,1212
2017-06-14T07:42:50.455Z,1220
2017-06-14T07:43:59.722Z,1240
2017-06-14T07:45:09.031Z,1244
2017-06-14T07:46:18.572Z,1224
2017-06-14T07:47:27.529Z,1224
2017-06-14T07:48:36.810Z,1236
2017-06-14T07:49:45.776Z,1252
2017-06-14T07:50:54.755Z,1256
2017-06-14T07:52:03.807Z,1256
2017-06-14T07:53:12.780Z,1276
2017-06-14T07:54:22.517Z,1228
2017-06-14T07:55:31.929Z,1220
2017-06-14T07:56:41.036Z,1224
2017-06-14T07:57:50.097Z,1224
2017-06-14T07:58:59.087Z,1220
2017-06-14T08:00:08.143Z,1224
2017-06-14T08:01:17.162Z,1236
2017-06-14T08:02:26.851Z,1252
2017-06-14T08:03:36.120Z,1280
2017-06-14T08:04:45.416Z,1320
2017-06-14T08:05:54.361Z,1392
2017-06-14T08:07:03.360Z,1488
2017-06-14T08:08:12.357Z,1676
2017-06-14T08:09:22.024Z,1864
2017-06-14T08:10:30.971Z,2204
2017-06-14T08:11:40.209Z,3052
2017-06-14T08:12:49.436Z,3084
2017-06-14T08:13:58.334Z,2168
2017-06-14T08:15:07.370Z,1620
2017-06-14T08:16:16.279Z,1624
2017-06-14T08:17:25.196Z,1752
2017-06-14T08:18:34.412Z,1496
2017-06-14T08:19:43.308Z,1580
2017-06-14T08:20:52.529Z,1436
2017-06-14T08:22:01.423Z,1372
2017-06-14T08:23:10.653Z,1344
2017-06-14T08:24:19.550Z,1308
2017-06-14T08:25:28.463Z,1300
2017-06-14T08:26:37.626Z,1312
2017-06-14T08:27:46.840Z,1328
2017-06-14T08:28:55.737Z,1352
2017-06-14T08:30:05.024Z,1392
2017-06-14T08:31:14.003Z,1432
2017-06-14T08:32:23.792Z,1444
2017-06-14T08:33:33.062Z,1468
2017-06-14T08:34:41.991Z,1440
2017-06-14T08:35:50.932Z,1304
2017-06-14T08:37:00.165Z,1320
2017-06-14T08:38:09.362Z,1352
2017-06-14T08:39:18.265Z,1400
2017-06-14T08:40:27.499Z,1420
2017-06-14T08:41:36.411Z,1432
2017-06-14T08:42:45.335Z,1512
2017-06-14T08:43:55.049Z,1400
2017-06-14T08:45:03.990Z,1420
2017-06-14T08:46:13.211Z,1320
2017-06-14T08:47:22.452Z,1444
2017-06-14T08:48:32.001Z,1440
2017-06-14T08:49:40.949Z,1480
2017-06-14T08:50:49.843Z,1516
2017-06-14T08:51:58.737Z,1576
2017-06-14T08:53:07.957Z,1580
2017-06-14T08:54:17.200Z,1936
2017-06-14T08:55:26.246Z,2044
2017-06-14T08:56:35.140Z,2080
2017-06-14T08:57:44.046Z,2224
2017-06-14T08:58:53.270Z,2408
2017-06-14T09:00:02.161Z,1916
2017-06-14T09:01:11.696Z,1800
2017-06-14T09:02:20.933Z,1756
2017-06-14T09:03:30.479Z,1660
2017-06-14T09:04:39.707Z,1544
2017-06-14T09:05:48.604Z,1544
2017-06-14T09:06:57.874Z,1528
2017-06-14T09:08:07.112Z,1500
2017-06-14T09:09:16.017Z,1496
2017-06-14T09:10:24.919Z,1532
2017-06-14T09:11:34.190Z,1528
2017-06-14T09:12:43.436Z,1608
2017-06-14T09:13:52.704Z,1708
2017-06-14T09:15:01.922Z,1848
2017-06-14T09:16:11.137Z,1876
2017-06-14T09:17:20.047Z,1816
2017-06-14T09:18:29.066Z,1736
2017-06-14T09:19:37.985Z,1684
2017-06-14T09:20:46.892Z,1684
2017-06-14T09:21:56.468Z,1752
2017-06-14T09:23:05.686Z,1764
2017-06-14T09:24:15.058Z,1756
2017-06-14T09:25:24.651Z,1748
2017-06-14T09:26:34.196Z,1812
2017-06-14T09:27:43.100Z,1880
2017-06-14T09:28:51.992Z,1924
2017-06-14T09:30:01.460Z,1904
2017-06-14T09:31:10.733Z,1940
2017-06-14T09:32:19.633Z,1740
2017-06-14T09:33:28.524Z,1940
2017-06-14T09:34:37.736Z,2044
2017-06-14T09:35:46.683Z,2136
2017-06-14T09:36:55.573Z,2088
2017-06-14T09:38:04.464Z,1952
2017-06-14T09:39:13.698Z,1960
2017-06-14T09:40:22.921Z,2080
2017-06-14T09:41:31.914Z,2240
2017-06-14T09:42:41.132Z,2492
2017-06-14T09:43:50.020Z,2616
2017-06-14T09:44:59.235Z,2428
2017-06-14T09:46:08.127Z,2164
2017-06-14T09:47:17.169Z,2132
2017-06-14T09:48:26.053Z,2008
2017-06-14T09:49:35.283Z,2044
2017-06-14T09:50:44.183Z,2340
2017-06-14T09:51:53.403Z,3080
2017-06-14T09:53:02.400Z,2824
2017-06-14T09:54:11.296Z,2488
2017-06-14T09:55:20.840Z,2548
2017-06-14T09:56:29.731Z,2600
2017-06-14T09:57:38.947Z,3480
2017-06-14T09:58:47.941Z,4460
2017-06-14T09:59:57.157Z,4844
2017-06-14T10:01:06.376Z,4972
2017-06-14T10:02:15.267Z,5684
2017-06-14T10:03:24.499Z,5388
2017-06-14T10:04:33.413Z,4752
2017-06-14T10:05:42.330Z,3748
2017-06-14T10:06:51.556Z,2824
2017-06-14T10:08:00.450Z,2492
2017-06-14T10:09:09.665Z,2540
2017-06-14T10:10:18.886Z,2536
2017-06-14T10:11:28.107Z,2524
2017-06-14T10:12:37.000Z,2332
2017-06-14T10:13:45.892Z,2368
2017-06-14T10:14:54.792Z,2352
2017-06-14T10:16:03.734Z,2480
2017-06-14T10:17:12.967Z,2508
2017-06-14T10:18:21.860Z,2560
2017-06-14T10:19:31.073Z,2656
2017-06-14T10:20:39.965Z,2868
2017-06-14T10:21:49.006Z,3052
2017-06-14T10:22:58.549Z,3484
2017-06-14T10:24:07.447Z,3900
2017-06-14T10:25:16.342Z,4432
2017-06-14T10:26:25.237Z,4668
2017-06-14T10:27:34.505Z,5236
2017-06-14T10:28:43.399Z,5376
2017-06-14T10:29:52.617Z,5352
2017-06-14T10:31:01.515Z,5460
2017-06-14T10:32:10.412Z,4244
2017-06-14T10:33:19.681Z,2972
2017-06-14T10:34:28.899Z,2592
2017-06-14T10:35:37.795Z,2540
2017-06-14T10:36:47.013Z,2692
2017-06-14T10:37:55.905Z,2820
2017-06-14T10:39:04.954Z,2904
2017-06-14T10:40:14.497Z,3224
2017-06-14T10:41:23.713Z,3528
2017-06-14T10:42:32.610Z,3492
2017-06-14T10:43:41.824Z,3136
2017-06-14T10:44:51.041Z,2896
2017-06-14T10:45:59.932Z,2872
2017-06-14T10:47:09.149Z,3088
2017-06-14T10:48:18.038Z,3528
2017-06-14T10:49:27.251Z,4268
2017-06-14T10:50:36.569Z,5628
2017-06-14T10:51:45.471Z,6340
2017-06-14T10:52:54.361Z,6296
2017-06-14T10:54:03.255Z,6140
2017-06-14T10:55:12.148Z,6144
2017-06-14T10:56:21.515Z,6488
2017-06-14T10:57:30.406Z,6192
2017-06-14T10:58:39.301Z,5972
2017-06-14T10:59:48.518Z,5848
2017-06-14T11:00:57.417Z,5588
2017-06-14T11:02:06.788Z,5040
2017-06-14T11:03:16.005Z,4620
2017-06-14T11:04:24.903Z,4296
2017-06-14T11:05:34.124Z,3972
2017-06-14T11:06:43.013Z,3872
2017-06-14T11:07:51.906Z,3784
2017-06-14T11:09:00.803Z,3600
2017-06-14T11:10:10.024Z,3744
2017-06-14T11:11:18.919Z,4112
2017-06-14T11:12:28.457Z,4960
2017-06-14T11:13:38.147Z,5688
2017-06-14T11:14:47.371Z,5760
2017-06-14T11:15:56.589Z,5488
2017-06-14T11:17:05.485Z,5788
2017-06-14T11:18:14.380Z,6440
2017-06-14T11:19:23.426Z,6768
2017-06-14T11:20:32.319Z,6832
2017-06-14T11:21:41.544Z,6516
2017-06-14T11:22:51.414Z,6616
2017-06-14T11:24:00.964Z,6908
2017-06-14T11:25:10.010Z,6796
2017-06-14T11:26:19.231Z,5960
2017-06-14T11:27:28.451Z,5544
2017-06-14T11:28:37.341Z,5280
2017-06-14T11:29:46.237Z,4788
2017-06-14T11:30:55.606Z,4428
2017-06-14T11:32:04.503Z,4332
2017-06-14T11:33:13.721Z,4392
2017-06-14T11:34:22.950Z,4484
2017-06-14T11:35:31.847Z,4304
2017-06-14T11:36:40.840Z,4524
2017-06-14T11:37:49.732Z,4540
2017-06-14T11:38:58.636Z,4680
2017-06-14T11:40:07.862Z,5144
2017-06-14T11:41:17.412Z,5856
2017-06-14T11:42:26.505Z,6716
2017-06-14T11:43:35.728Z,7368
2017-06-14T11:44:44.624Z,7880
2017-06-14T11:45:53.516Z,8640
2017-06-14T11:47:02.415Z,10292
2017-06-14T11:48:11.365Z,11116
2017-06-14T11:49:20.265Z,11512
2017-06-14T11:50:29.486Z,10476
2017-06-14T11:51:38.709Z,8888
2017-06-14T11:52:47.928Z,7612
2017-06-14T11:53:56.822Z,7756
2017-06-14T11:55:05.720Z,8560
2017-06-14T11:56:14.614Z,64480
2017-06-14T11:57:23.509Z,77120
2017-06-14T11:58:32.407Z,66816
2017-06-14T11:59:41.335Z,65312
2017-06-14T12:00:50.710Z,51296
2017-06-14T12:01:59.606Z,34144
2017-06-14T12:03:08.504Z,44704
2017-06-14T12:04:18.056Z,32192
2017-06-14T12:05:27.207Z,53088
2017-06-14T12:06:36.758Z,62592
2017-06-14T12:07:45.660Z,69024
2017-06-14T12:08:54.887Z,79328
2017-06-14T12:10:03.793Z,84192
2017-06-14T12:11:12.842Z,92480
2017-06-14T12:12:21.742Z,99328
2017-06-14T12:13:30.642Z,96096
2017-06-14T12:14:39.872Z,60992
2017-06-14T12:15:48.777Z,62208
2017-06-14T12:16:58.154Z,94720
2017-06-14T12:18:07.068Z,60928
2017-06-14T12:19:15.970Z,20192
2017-06-14T12:20:25.200Z,11632
2017-06-14T12:21:34.764Z,10948
2017-06-14T12:22:43.972Z,11652
2017-06-14T12:23:53.551Z,12652
2017-06-14T12:25:02.779Z,15264
2017-06-14T12:26:12.012Z,29472
2017-06-14T12:27:20.921Z,18784
2017-06-14T12:28:30.304Z,15940
2017-06-14T12:29:39.206Z,16420
2017-06-14T12:30:48.433Z,18624
2017-06-14T12:31:57.346Z,16496
2017-06-14T12:33:06.251Z,25568
2017-06-14T12:34:15.307Z,11928
2017-06-14T12:35:24.207Z,13916
2017-06-14T12:36:33.117Z,57120
2017-06-14T12:37:42.017Z,31680
2017-06-14T12:38:50.916Z,35616
2017-06-14T12:39:59.870Z,77920
2017-06-14T12:41:08.776Z,93280
2017-06-14T12:42:18.008Z,95392
2017-06-14T12:43:26.929Z,100416
2017-06-14T12:44:35.835Z,83776
2017-06-14T12:45:44.841Z,73216
2017-06-14T12:46:54.088Z,96480
2017-06-14T12:48:02.991Z,82048
2017-06-14T12:49:12.240Z,88320
2017-06-14T12:50:21.474Z,92864
2017-06-14T12:51:30.831Z,92064
2017-06-14T12:52:39.765Z,93984
2017-06-14T12:53:49.003Z,88288
2017-06-14T12:54:57.957Z,82304
2017-06-14T12:56:07.195Z,87712
2017-06-14T12:57:16.496Z,92128
2017-06-14T12:58:26.057Z,91328
2017-06-14T12:59:35.628Z,83232
2017-06-14T13:00:44.536Z,87744
2017-06-14T13:01:53.797Z,94400
2017-06-14T13:03:03.133Z,94464
2017-06-14T13:04:12.046Z,94528
2017-06-14T13:05:20.957Z,88544
2017-06-14T13:06:29.868Z,80608
2017-06-14T13:07:38.780Z,78720
2017-06-14T13:08:47.743Z,81568
2017-06-14T13:09:56.661Z,84224
2017-06-14T13:11:05.569Z,86560
2017-06-14T13:12:14.805Z,85216
2017-06-14T13:13:23.721Z,81440
2017-06-14T13:14:33.359Z,82912
2017-06-14T13:15:42.286Z,83104
2017-06-14T13:16:51.254Z,81664
2017-06-14T13:18:00.818Z,84672
2017-06-14T13:19:09.733Z,84896
2017-06-14T13:20:18.830Z,84512
2017-06-14T13:21:27.744Z,84032
2017-06-14T13:22:36.665Z,80192
2017-06-14T13:23:45.578Z,7308
2017-06-14T13:24:54.491Z,7424
2017-06-14T13:26:03.551Z,11032
2017-06-14T13:27:12.461Z,9000
2017-06-14T13:28:21.373Z,6804
2017-06-14T13:29:30.279Z,9400
2017-06-14T13:30:39.191Z,6500
2017-06-14T13:31:48.899Z,6636
2017-06-14T13:32:57.805Z,7324
2017-06-14T13:34:07.038Z,7080
2017-06-14T13:35:15.950Z,7716
2017-06-14T13:36:25.181Z,10092
2017-06-14T13:37:34.241Z,9792
2017-06-14T13:38:43.473Z,10584
2017-06-14T13:39:52.382Z,14528
2017-06-14T13:41:01.288Z,67136
2017-06-14T13:42:10.194Z,94784
2017-06-14T13:43:19.248Z,88288
2017-06-14T13:44:28.154Z,85440
2017-06-14T13:45:37.707Z,85312
2017-06-14T13:46:46.940Z,85280
2017-06-14T13:47:56.184Z,82656
2017-06-14T13:49:05.415Z,79616
2017-06-14T13:50:14.651Z,70240
2017-06-14T13:51:23.904Z,73632
2017-06-14T13:52:32.814Z,84736
2017-06-14T13:53:41.723Z,80288
2017-06-14T13:54:51.071Z,81792
2017-06-14T13:55:59.984Z,56576
2017-06-14T13:57:08.918Z,86976
2017-06-14T13:58:18.160Z,77376
2017-06-14T13:59:27.400Z,78272
2017-06-14T14:00:36.792Z,79968
2017-06-14T14:01:46.032Z,27968
2017-06-14T14:02:55.268Z,10460
2017-06-14T14:04:04.179Z,10320
2017-06-14T14:05:13.420Z,9432
2017-06-14T14:06:22.583Z,9352
2017-06-14T14:07:31.822Z,10076
2017-06-14T14:08:40.735Z,10440
2017-06-14T14:09:49.646Z,12216
2017-06-14T14:10:58.550Z,14544
2017-06-14T14:12:07.934Z,12264
2017-06-14T14:13:16.840Z,10768
2017-06-14T14:14:26.072Z,10408
2017-06-14T14:15:34.979Z,10664
2017-06-14T14:16:44.210Z,10752
2017-06-14T14:17:53.514Z,11432
2017-06-14T14:19:02.423Z,14360
2017-06-14T14:20:11.326Z,47008
2017-06-14T14:21:20.558Z,84000
2017-06-14T14:22:29.468Z,84704
2017-06-14T14:23:38.523Z,80640
2017-06-14T14:24:48.077Z,75456
2017-06-14T14:25:56.988Z,82304
2017-06-14T14:27:05.893Z,84832
2017-06-14T14:28:14.803Z,81088
2017-06-14T14:29:23.810Z,78240
2017-06-14T14:30:32.719Z,70496
2017-06-14T14:31:41.642Z,64064
2017-06-14T14:32:50.567Z,85824
2017-06-14T14:33:59.480Z,80928
2017-06-14T14:35:08.492Z,80512
2017-06-14T14:36:17.729Z,78112
2017-06-14T14:37:26.642Z,7788
2017-06-14T14:38:35.554Z,6288
2017-06-14T14:39:44.463Z,5492
2017-06-14T14:40:53.671Z,4816
2017-06-14T14:42:02.579Z,4916
2017-06-14T14:43:11.820Z,4828
2017-06-14T14:44:20.734Z,4396
2017-06-14T14:45:29.973Z,4580
2017-06-14T14:46:39.129Z,4896
2017-06-14T14:47:48.360Z,6016
2017-06-14T14:48:57.267Z,5940
2017-06-14T14:50:06.170Z,5712
2017-06-14T14:51:15.101Z,6428
2017-06-14T14:52:24.883Z,8076
2017-06-14T14:53:34.441Z,6736
2017-06-14T14:54:43.355Z,6400
2017-06-14T14:55:52.293Z,5808
2017-06-14T14:57:01.574Z,16320
2017-06-14T14:58:10.580Z,41536
2017-06-14T14:59:19.481Z,32576
2017-06-14T15:00:28.391Z,33088
2017-06-14T15:01:37.293Z,12624
2017-06-14T15:02:46.193Z,20832
2017-06-14T15:03:55.252Z,14636
2017-06-14T15:05:04.160Z,18944
2017-06-14T15:06:13.073Z,27840
2017-06-14T15:07:21.980Z,28448
2017-06-14T15:08:31.538Z,22560
2017-06-14T15:09:40.971Z,19968
2017-06-14T15:10:49.877Z,10884
2017-06-14T15:11:58.781Z,10180
2017-06-14T15:13:07.685Z,13492
2017-06-14T15:14:16.592Z,15520
2017-06-14T15:15:25.653Z,14096
2017-06-14T15:16:34.558Z,13480
2017-06-14T15:17:43.470Z,10124
2017-06-14T15:18:52.377Z,12484
2017-06-14T15:20:01.612Z,12320
2017-06-14T15:21:10.893Z,11204
2017-06-14T15:22:20.125Z,9776
2017-06-14T15:23:29.361Z,11584
2017-06-14T15:24:38.272Z,11648
2017-06-14T15:25:47.188Z,11260
2017-06-14T15:26:56.259Z,7284
2017-06-14T15:28:05.175Z,5444
2017-06-14T15:29:14.096Z,5512
2017-06-14T15:30:23.012Z,5612
2017-06-14T15:31:31.925Z,9692
2017-06-14T15:32:40.986Z,10324
2017-06-14T15:33:49.892Z,10304